sensor_id;sensor_type;location;lat;lon;timestamp;pressure;altitude;pressure_sealevel;temperature
75811;BMP280;64449;50.016;19.954;2023-12-28T00:01:08;98952.40;;;3.56
75811;BMP280;64449;50.016;19.954;2023-12-28T00:03:33;98952.46;;;3.51
75811;BMP280;64449;50.016;19.954;2023-12-28T00:05:59;98953.02;;;3.50
75811;BMP280;64449;50.016;19.954;2023-12-28T00:08:24;98955.30;;;3.50
75811;BMP280;64449;50.016;19.954;2023-12-28T00:10:50;98956.46;;;3.49
75811;BMP280;64449;50.016;19.954;2023-12-28T00:13:16;98954.61;;;3.50
75811;BMP280;64449;50.016;19.954;2023-12-28T00:15:41;98962.41;;;3.50
75811;BMP280;64449;50.016;19.954;2023-12-28T00:18:06;98962.27;;;3.51
75811;BMP280;64449;50.016;19.954;2023-12-28T00:20:32;98963.52;;;3.51
75811;BMP280;64449;50.016;19.954;2023-12-28T00:22:57;98964.65;;;3.50
75811;BMP280;64449;50.016;19.954;2023-12-28T00:25:23;98952.02;;;3.50
75811;BMP280;64449;50.016;19.954;2023-12-28T00:27:48;98947.59;;;3.49
75811;BMP280;64449;50.016;19.954;2023-12-28T00:30:14;98956.35;;;3.48
75811;BMP280;64449;50.016;19.954;2023-12-28T00:32:42;98945.36;;;3.47
75811;BMP280;64449;50.016;19.954;2023-12-28T00:35:11;98948.30;;;3.44
75811;BMP280;64449;50.016;19.954;2023-12-28T00:37:36;98945.48;;;3.44
75811;BMP280;64449;50.016;19.954;2023-12-28T00:40:03;98936.64;;;3.42
75811;BMP280;64449;50.016;19.954;2023-12-28T00:42:28;98932.55;;;3.41
75811;BMP280;64449;50.016;19.954;2023-12-28T00:44:53;98932.16;;;3.41
75811;BMP280;64449;50.016;19.954;2023-12-28T00:47:19;98928.32;;;3.42
75811;BMP280;64449;50.016;19.954;2023-12-28T00:49:44;98924.23;;;3.40
75811;BMP280;64449;50.016;19.954;2023-12-28T00:52:09;98922.97;;;3.39
75811;BMP280;64449;50.016;19.954;2023-12-28T00:54:38;98927.73;;;3.38
75811;BMP280;64449;50.016;19.954;2023-12-28T00:57:04;98924.04;;;3.35
75811;BMP280;64449;50.016;19.954;2023-12-28T00:59:30;98916.26;;;3.33
75811;BMP280;64449;50.016;19.954;2023-12-28T01:01:56;98917.65;;;3.33
75811;BMP280;64449;50.016;19.954;2023-12-28T01:04:21;98921.04;;;3.30
75811;BMP280;64449;50.016;19.954;2023-12-28T01:06:50;98910.20;;;3.28
75811;BMP280;64449;50.016;19.954;2023-12-28T01:09:15;98905.76;;;3.25
75811;BMP280;64449;50.016;19.954;2023-12-28T01:11:41;98898.67;;;3.23
75811;BMP280;64449;50.016;19.954;2023-12-28T01:14:06;98897.30;;;3.20
75811;BMP280;64449;50.016;19.954;2023-12-28T01:16:32;98887.50;;;3.19
75811;BMP280;64449;50.016;19.954;2023-12-28T01:18:58;98879.20;;;3.18
75811;BMP280;64449;50.016;19.954;2023-12-28T01:21:23;98873.89;;;3.16
75811;BMP280;64449;50.016;19.954;2023-12-28T01:23:50;98865.23;;;3.11
75811;BMP280;64449;50.016;19.954;2023-12-28T01:26:16;98855.31;;;3.09
75811;BMP280;64449;50.016;19.954;2023-12-28T01:28:42;98853.83;;;3.08
75811;BMP280;64449;50.016;19.954;2023-12-28T01:31:09;98849.72;;;3.07
75811;BMP280;64449;50.016;19.954;2023-12-28T01:33:34;98853.05;;;3.06
75811;BMP280;64449;50.016;19.954;2023-12-28T01:36:01;98850.27;;;3.05
75811;BMP280;64449;50.016;19.954;2023-12-28T01:38:27;98850.86;;;3.05
75811;BMP280;64449;50.016;19.954;2023-12-28T01:40:52;98852.52;;;3.03
75811;BMP280;64449;50.016;19.954;2023-12-28T01:43:18;98845.50;;;3.03
75811;BMP280;64449;50.016;19.954;2023-12-28T01:45:44;98843.30;;;3.03
75811;BMP280;64449;50.016;19.954;2023-12-28T01:48:10;98836.73;;;3.02
75811;BMP280;64449;50.016;19.954;2023-12-28T01:50:36;98821.40;;;2.99
75811;BMP280;64449;50.016;19.954;2023-12-28T01:53:02;98825.93;;;2.97
75811;BMP280;64449;50.016;19.954;2023-12-28T01:55:29;98826.66;;;2.96
75811;BMP280;64449;50.016;19.954;2023-12-28T01:57:56;98820.75;;;2.96
75811;BMP280;64449;50.016;19.954;2023-12-28T02:00:22;98818.84;;;2.95
75811;BMP280;64449;50.016;19.954;2023-12-28T02:02:48;98816.98;;;2.95
75811;BMP280;64449;50.016;19.954;2023-12-28T02:05:14;98809.25;;;2.94
75811;BMP280;64449;50.016;19.954;2023-12-28T02:07:40;98806.42;;;2.92
75811;BMP280;64449;50.016;19.954;2023-12-28T02:10:07;98805.25;;;2.89
75811;BMP280;64449;50.016;19.954;2023-12-28T02:12:33;98799.10;;;2.83
75811;BMP280;64449;50.016;19.954;2023-12-28T02:14:59;98800.59;;;2.78
75811;BMP280;64449;50.016;19.954;2023-12-28T02:17:34;98795.55;;;2.76
75811;BMP280;64449;50.016;19.954;2023-12-28T02:20:01;98789.80;;;2.75
75811;BMP280;64449;50.016;19.954;2023-12-28T02:22:31;98785.71;;;2.75
75811;BMP280;64449;50.016;19.954;2023-12-28T02:25:10;98785.19;;;2.76
75811;BMP280;64449;50.016;19.954;2023-12-28T02:27:41;98786.09;;;2.76
75811;BMP280;64449;50.016;19.954;2023-12-28T02:30:09;98785.87;;;2.77
75811;BMP280;64449;50.016;19.954;2023-12-28T02:35:18;98774.70;;;2.79
75811;BMP280;64449;50.016;19.954;2023-12-28T02:37:48;98775.53;;;2.79
75811;BMP280;64449;50.016;19.954;2023-12-28T02:40:16;98775.52;;;2.81
75811;BMP280;64449;50.016;19.954;2023-12-28T02:42:42;98780.64;;;2.79
75811;BMP280;64449;50.016;19.954;2023-12-28T02:45:08;98774.93;;;2.77
75811;BMP280;64449;50.016;19.954;2023-12-28T02:47:34;98768.52;;;2.75
75811;BMP280;64449;50.016;19.954;2023-12-28T02:49:59;98761.28;;;2.73
75811;BMP280;64449;50.016;19.954;2023-12-28T02:52:24;98762.87;;;2.72
75811;BMP280;64449;50.016;19.954;2023-12-28T02:54:50;98762.16;;;2.71
75811;BMP280;64449;50.016;19.954;2023-12-28T02:57:15;98760.86;;;2.70
75811;BMP280;64449;50.016;19.954;2023-12-28T02:59:47;98765.68;;;2.66
75811;BMP280;64449;50.016;19.954;2023-12-28T03:02:12;98754.21;;;2.61
75811;BMP280;64449;50.016;19.954;2023-12-28T03:04:38;98760.84;;;2.53
75811;BMP280;64449;50.016;19.954;2023-12-28T03:07:05;98759.67;;;2.51
75811;BMP280;64449;50.016;19.954;2023-12-28T03:09:30;98757.42;;;2.50
75811;BMP280;64449;50.016;19.954;2023-12-28T03:11:56;98764.05;;;2.51
75811;BMP280;64449;50.016;19.954;2023-12-28T03:14:21;98764.51;;;2.53
75811;BMP280;64449;50.016;19.954;2023-12-28T03:16:47;98761.41;;;2.55
75811;BMP280;64449;50.016;19.954;2023-12-28T03:19:12;98766.42;;;2.58
75811;BMP280;64449;50.016;19.954;2023-12-28T03:21:41;98769.13;;;2.61
75811;BMP280;64449;50.016;19.954;2023-12-28T03:24:07;98772.98;;;2.62
75811;BMP280;64449;50.016;19.954;2023-12-28T03:26:32;98775.63;;;2.65
75811;BMP280;64449;50.016;19.954;2023-12-28T03:29:00;98770.34;;;2.67
75811;BMP280;64449;50.016;19.954;2023-12-28T03:31:25;98764.50;;;2.69
75811;BMP280;64449;50.016;19.954;2023-12-28T03:33:51;98764.20;;;2.69
75811;BMP280;64449;50.016;19.954;2023-12-28T03:36:19;98758.52;;;2.69
75811;BMP280;64449;50.016;19.954;2023-12-28T03:38:45;98754.42;;;2.68
75811;BMP280;64449;50.016;19.954;2023-12-28T03:41:20;98752.36;;;2.66
75811;BMP280;64449;50.016;19.954;2023-12-28T03:43:46;98746.76;;;2.63
75811;BMP280;64449;50.016;19.954;2023-12-28T03:46:12;98739.67;;;2.60
75811;BMP280;64449;50.016;19.954;2023-12-28T03:48:38;98738.66;;;2.54
75811;BMP280;64449;50.016;19.954;2023-12-28T03:51:04;98733.11;;;2.51
75811;BMP280;64449;50.016;19.954;2023-12-28T03:53:30;98730.67;;;2.48
75811;BMP280;64449;50.016;19.954;2023-12-28T03:55:58;98728.67;;;2.45
75811;BMP280;64449;50.016;19.954;2023-12-28T03:58:24;98724.11;;;2.45
75811;BMP280;64449;50.016;19.954;2023-12-28T04:00:49;98725.09;;;2.45
75811;BMP280;64449;50.016;19.954;2023-12-28T04:03:15;98726.08;;;2.45
75811;BMP280;64449;50.016;19.954;2023-12-28T04:05:40;98722.31;;;2.44
75811;BMP280;64449;50.016;19.954;2023-12-28T04:08:06;98717.89;;;2.43
75811;BMP280;64449;50.016;19.954;2023-12-28T04:10:33;98714.23;;;2.43
75811;BMP280;64449;50.016;19.954;2023-12-28T04:12:59;98712.69;;;2.43
75811;BMP280;64449;50.016;19.954;2023-12-28T04:15:28;98712.46;;;2.43
75811;BMP280;64449;50.016;19.954;2023-12-28T04:17:54;98704.11;;;2.43
75811;BMP280;64449;50.016;19.954;2023-12-28T04:20:19;98695.89;;;2.42
75811;BMP280;64449;50.016;19.954;2023-12-28T04:22:44;98691.59;;;2.40
75811;BMP280;64449;50.016;19.954;2023-12-28T04:25:10;98694.11;;;2.40
75811;BMP280;64449;50.016;19.954;2023-12-28T04:27:36;98696.23;;;2.40
75811;BMP280;64449;50.016;19.954;2023-12-28T04:30:02;98689.70;;;2.40
75811;BMP280;64449;50.016;19.954;2023-12-28T04:32:27;98692.48;;;2.40
75811;BMP280;64449;50.016;19.954;2023-12-28T04:34:53;98695.36;;;2.39
75811;BMP280;64449;50.016;19.954;2023-12-28T04:37:21;98699.01;;;2.38
75811;BMP280;64449;50.016;19.954;2023-12-28T04:39:46;98713.50;;;2.37
75811;BMP280;64449;50.016;19.954;2023-12-28T04:42:12;98716.30;;;2.37
75811;BMP280;64449;50.016;19.954;2023-12-28T04:44:38;98718.23;;;2.37
75811;BMP280;64449;50.016;19.954;2023-12-28T04:47:04;98726.06;;;2.37
75811;BMP280;64449;50.016;19.954;2023-12-28T04:49:30;98722.83;;;2.37
75811;BMP280;64449;50.016;19.954;2023-12-28T04:51:55;98724.80;;;2.37
75811;BMP280;64449;50.016;19.954;2023-12-28T04:54:21;98724.06;;;2.37
75811;BMP280;64449;50.016;19.954;2023-12-28T04:56:46;98723.69;;;2.36
75811;BMP280;64449;50.016;19.954;2023-12-28T04:59:11;98731.84;;;2.34
75811;BMP280;64449;50.016;19.954;2023-12-28T05:01:43;98730.46;;;2.33
75811;BMP280;64449;50.016;19.954;2023-12-28T05:04:09;98732.55;;;2.32
75811;BMP280;64449;50.016;19.954;2023-12-28T05:06:35;98731.77;;;2.32
75811;BMP280;64449;50.016;19.954;2023-12-28T05:09:00;98732.86;;;2.31
75811;BMP280;64449;50.016;19.954;2023-12-28T05:11:26;98726.64;;;2.29
75811;BMP280;64449;50.016;19.954;2023-12-28T05:13:52;98730.09;;;2.26
75811;BMP280;64449;50.016;19.954;2023-12-28T05:16:17;98730.00;;;2.22
75811;BMP280;64449;50.016;19.954;2023-12-28T05:18:43;98729.95;;;2.21
75811;BMP280;64449;50.016;19.954;2023-12-28T05:21:08;98726.19;;;2.21
75811;BMP280;64449;50.016;19.954;2023-12-28T05:23:33;98720.60;;;2.24
75811;BMP280;64449;50.016;19.954;2023-12-28T05:25:59;98718.56;;;2.26
75811;BMP280;64449;50.016;19.954;2023-12-28T05:28:24;98721.19;;;2.28
75811;BMP280;64449;50.016;19.954;2023-12-28T05:30:49;98726.10;;;2.29
75811;BMP280;64449;50.016;19.954;2023-12-28T05:33:15;98726.25;;;2.32
75811;BMP280;64449;50.016;19.954;2023-12-28T05:35:40;98720.30;;;2.32
75811;BMP280;64449;50.016;19.954;2023-12-28T05:38:05;98714.70;;;2.32
75811;BMP280;64449;50.016;19.954;2023-12-28T05:40:31;98708.24;;;2.31
75811;BMP280;64449;50.016;19.954;2023-12-28T05:42:56;98699.17;;;2.31
75811;BMP280;64449;50.016;19.954;2023-12-28T05:45:21;98697.64;;;2.30
75811;BMP280;64449;50.016;19.954;2023-12-28T05:47:47;98700.11;;;2.28
75811;BMP280;64449;50.016;19.954;2023-12-28T05:50:12;98709.36;;;2.28
75811;BMP280;64449;50.016;19.954;2023-12-28T05:52:38;98711.72;;;2.30
75811;BMP280;64449;50.016;19.954;2023-12-28T05:55:04;98711.77;;;2.29
75811;BMP280;64449;50.016;19.954;2023-12-28T05:57:29;98721.11;;;2.27
75811;BMP280;64449;50.016;19.954;2023-12-28T05:59:56;98722.90;;;2.28
75811;BMP280;64449;50.016;19.954;2023-12-28T06:02:22;98720.50;;;2.29
75811;BMP280;64449;50.016;19.954;2023-12-28T06:04:47;98723.63;;;2.29
75811;BMP280;64449;50.016;19.954;2023-12-28T06:07:13;98728.02;;;2.29
75811;BMP280;64449;50.016;19.954;2023-12-28T06:09:38;98736.30;;;2.29
75811;BMP280;64449;50.016;19.954;2023-12-28T06:12:05;98753.98;;;2.29
75811;BMP280;64449;50.016;19.954;2023-12-28T06:14:30;98760.88;;;2.30
75811;BMP280;64449;50.016;19.954;2023-12-28T06:16:56;98752.41;;;2.30
75811;BMP280;64449;50.016;19.954;2023-12-28T06:19:21;98748.05;;;2.30
75811;BMP280;64449;50.016;19.954;2023-12-28T06:21:48;98744.92;;;2.29
75811;BMP280;64449;50.016;19.954;2023-12-28T06:24:13;98741.75;;;2.25
75811;BMP280;64449;50.016;19.954;2023-12-28T06:26:43;98747.44;;;2.19
75811;BMP280;64449;50.016;19.954;2023-12-28T06:29:09;98741.13;;;2.10
75811;BMP280;64449;50.016;19.954;2023-12-28T06:31:38;98731.33;;;2.04
75811;BMP280;64449;50.016;19.954;2023-12-28T06:34:04;98735.02;;;1.99
75811;BMP280;64449;50.016;19.954;2023-12-28T06:36:30;98731.52;;;1.94
75811;BMP280;64449;50.016;19.954;2023-12-28T06:38:56;98726.45;;;1.89
75811;BMP280;64449;50.016;19.954;2023-12-28T06:41:21;98725.64;;;1.85
75811;BMP280;64449;50.016;19.954;2023-12-28T06:43:47;98718.48;;;1.81
75811;BMP280;64449;50.016;19.954;2023-12-28T06:46:12;98715.34;;;1.80
75811;BMP280;64449;50.016;19.954;2023-12-28T06:48:38;98719.20;;;1.79
75811;BMP280;64449;50.016;19.954;2023-12-28T06:51:06;98718.11;;;1.76
75811;BMP280;64449;50.016;19.954;2023-12-28T06:53:31;98727.11;;;1.75
75811;BMP280;64449;50.016;19.954;2023-12-28T06:55:57;98728.46;;;1.75
75811;BMP280;64449;50.016;19.954;2023-12-28T06:58:22;98734.09;;;1.77
75811;BMP280;64449;50.016;19.954;2023-12-28T07:00:47;98736.16;;;1.80
75811;BMP280;64449;50.016;19.954;2023-12-28T07:03:13;98724.65;;;1.84
75811;BMP280;64449;50.016;19.954;2023-12-28T07:05:38;98724.04;;;1.85
75811;BMP280;64449;50.016;19.954;2023-12-28T07:08:04;98728.73;;;1.86
75811;BMP280;64449;50.016;19.954;2023-12-28T07:10:30;98730.05;;;1.88
75811;BMP280;64449;50.016;19.954;2023-12-28T07:12:55;98731.15;;;1.91
75811;BMP280;64449;50.016;19.954;2023-12-28T07:15:21;98734.05;;;1.96
75811;BMP280;64449;50.016;19.954;2023-12-28T07:17:46;98740.61;;;2.04
75811;BMP280;64449;50.016;19.954;2023-12-28T07:20:11;98749.91;;;2.16
75811;BMP280;64449;50.016;19.954;2023-12-28T07:22:37;98753.49;;;2.28
75811;BMP280;64449;50.016;19.954;2023-12-28T07:25:06;98756.23;;;2.40
75811;BMP280;64449;50.016;19.954;2023-12-28T07:27:32;98764.70;;;2.52
75811;BMP280;64449;50.016;19.954;2023-12-28T07:29:58;98769.73;;;2.64
75811;BMP280;64449;50.016;19.954;2023-12-28T07:32:23;98761.14;;;2.77
75811;BMP280;64449;50.016;19.954;2023-12-28T07:34:54;98764.27;;;2.88
75811;BMP280;64449;50.016;19.954;2023-12-28T07:37:20;98769.16;;;2.99
75811;BMP280;64449;50.016;19.954;2023-12-28T07:39:46;98769.13;;;3.10
75811;BMP280;64449;50.016;19.954;2023-12-28T07:42:11;98768.31;;;3.21
75811;BMP280;64449;50.016;19.954;2023-12-28T07:44:37;98760.09;;;3.34
75811;BMP280;64449;50.016;19.954;2023-12-28T07:47:02;98758.58;;;3.46
75811;BMP280;64449;50.016;19.954;2023-12-28T07:49:30;98746.08;;;3.61
75811;BMP280;64449;50.016;19.954;2023-12-28T07:51:55;98743.05;;;3.76
75811;BMP280;64449;50.016;19.954;2023-12-28T07:54:21;98747.77;;;3.89
75811;BMP280;64449;50.016;19.954;2023-12-28T07:56:46;98752.30;;;3.99
75811;BMP280;64449;50.016;19.954;2023-12-28T07:59:11;98761.98;;;4.09
75811;BMP280;64449;50.016;19.954;2023-12-28T08:01:37;98766.30;;;4.23
75811;BMP280;64449;50.016;19.954;2023-12-28T08:04:02;98757.72;;;4.36
75811;BMP280;64449;50.016;19.954;2023-12-28T08:06:29;98747.89;;;4.50
75811;BMP280;64449;50.016;19.954;2023-12-28T08:08:57;98741.42;;;4.63
75811;BMP280;64449;50.016;19.954;2023-12-28T08:11:24;98746.09;;;4.79
75811;BMP280;64449;50.016;19.954;2023-12-28T08:13:49;98743.40;;;4.97
75811;BMP280;64449;50.016;19.954;2023-12-28T08:16:15;98744.20;;;5.19
75811;BMP280;64449;50.016;19.954;2023-12-28T08:18:40;98745.75;;;5.44
75811;BMP280;64449;50.016;19.954;2023-12-28T08:21:05;98747.61;;;5.70
75811;BMP280;64449;50.016;19.954;2023-12-28T08:23:31;98759.98;;;5.93
75811;BMP280;64449;50.016;19.954;2023-12-28T08:25:56;98759.86;;;6.15
75811;BMP280;64449;50.016;19.954;2023-12-28T08:28:21;98755.85;;;6.38
75811;BMP280;64449;50.016;19.954;2023-12-28T08:30:48;98757.30;;;6.64
75811;BMP280;64449;50.016;19.954;2023-12-28T08:33:14;98765.11;;;6.91
75811;BMP280;64449;50.016;19.954;2023-12-28T08:35:39;98766.73;;;7.15
75811;BMP280;64449;50.016;19.954;2023-12-28T08:38:05;98772.68;;;7.40
75811;BMP280;64449;50.016;19.954;2023-12-28T08:40:31;98776.83;;;7.64
75811;BMP280;64449;50.016;19.954;2023-12-28T08:42:57;98776.59;;;7.87
75811;BMP280;64449;50.016;19.954;2023-12-28T08:45:22;98777.20;;;8.08
75811;BMP280;64449;50.016;19.954;2023-12-28T08:47:47;98778.00;;;8.27
75811;BMP280;64449;50.016;19.954;2023-12-28T08:50:13;98778.85;;;8.45
75811;BMP280;64449;50.016;19.954;2023-12-28T08:52:39;98776.78;;;8.64
75811;BMP280;64449;50.016;19.954;2023-12-28T08:55:05;98769.70;;;8.80
75811;BMP280;64449;50.016;19.954;2023-12-28T08:57:30;98770.27;;;8.97
75811;BMP280;64449;50.016;19.954;2023-12-28T08:59:56;98770.31;;;9.15
75811;BMP280;64449;50.016;19.954;2023-12-28T09:02:22;98768.59;;;9.33
75811;BMP280;64449;50.016;19.954;2023-12-28T09:04:48;98764.96;;;9.52
75811;BMP280;64449;50.016;19.954;2023-12-28T09:07:13;98761.27;;;9.69
75811;BMP280;64449;50.016;19.954;2023-12-28T09:09:39;98766.22;;;9.86
75811;BMP280;64449;50.016;19.954;2023-12-28T09:12:05;98758.40;;;10.02
75811;BMP280;64449;50.016;19.954;2023-12-28T09:14:30;98757.95;;;10.17
75811;BMP280;64449;50.016;19.954;2023-12-28T09:16:56;98753.21;;;10.34
75811;BMP280;64449;50.016;19.954;2023-12-28T09:19:22;98752.77;;;10.54
75811;BMP280;64449;50.016;19.954;2023-12-28T09:21:48;98746.90;;;10.75
75811;BMP280;64449;50.016;19.954;2023-12-28T09:24:13;98748.36;;;10.94
75811;BMP280;64449;50.016;19.954;2023-12-28T09:26:41;98751.65;;;11.14
75811;BMP280;64449;50.016;19.954;2023-12-28T09:29:06;98745.64;;;11.35
75811;BMP280;64449;50.016;19.954;2023-12-28T09:31:32;98744.63;;;11.53
75811;BMP280;64449;50.016;19.954;2023-12-28T09:33:57;98737.67;;;11.70
75811;BMP280;64449;50.016;19.954;2023-12-28T09:36:23;98731.77;;;11.86
75811;BMP280;64449;50.016;19.954;2023-12-28T09:38:48;98731.66;;;12.02
75811;BMP280;64449;50.016;19.954;2023-12-28T09:41:15;98726.48;;;12.16
75811;BMP280;64449;50.016;19.954;2023-12-28T09:43:48;98727.65;;;12.28
75811;BMP280;64449;50.016;19.954;2023-12-28T09:46:15;98726.23;;;12.39
75811;BMP280;64449;50.016;19.954;2023-12-28T09:48:41;98722.47;;;12.50
75811;BMP280;64449;50.016;19.954;2023-12-28T09:51:07;98716.40;;;12.56
75811;BMP280;64449;50.016;19.954;2023-12-28T09:53:35;98720.40;;;12.58
75811;BMP280;64449;50.016;19.954;2023-12-28T09:56:02;98720.27;;;12.59
75811;BMP280;64449;50.016;19.954;2023-12-28T09:58:28;98723.89;;;12.64
75811;BMP280;64449;50.016;19.954;2023-12-28T10:00:56;98727.50;;;12.68
75811;BMP280;64449;50.016;19.954;2023-12-28T10:03:21;98726.20;;;12.76
75811;BMP280;64449;50.016;19.954;2023-12-28T10:05:47;98720.17;;;12.85
75811;BMP280;64449;50.016;19.954;2023-12-28T10:08:15;98719.35;;;12.97
75811;BMP280;64449;50.016;19.954;2023-12-28T10:10:42;98720.23;;;13.12
75811;BMP280;64449;50.016;19.954;2023-12-28T10:13:08;98719.17;;;13.25
75811;BMP280;64449;50.016;19.954;2023-12-28T10:15:35;98715.59;;;13.36
75811;BMP280;64449;50.016;19.954;2023-12-28T10:18:01;98713.91;;;13.49
75811;BMP280;64449;50.016;19.954;2023-12-28T10:20:28;98711.63;;;13.70
75811;BMP280;64449;50.016;19.954;2023-12-28T10:22:53;98712.05;;;13.95
75811;BMP280;64449;50.016;19.954;2023-12-28T10:25:19;98710.02;;;14.15
75811;BMP280;64449;50.016;19.954;2023-12-28T10:27:44;98702.56;;;14.36
75811;BMP280;64449;50.016;19.954;2023-12-28T10:30:10;98700.48;;;14.55
75811;BMP280;64449;50.016;19.954;2023-12-28T10:32:42;98703.84;;;14.85
75811;BMP280;64449;50.016;19.954;2023-12-28T10:35:07;98701.53;;;15.21
75811;BMP280;64449;50.016;19.954;2023-12-28T10:37:35;98702.00;;;15.52
75811;BMP280;64449;50.016;19.954;2023-12-28T10:40:05;98696.83;;;15.84
75811;BMP280;64449;50.016;19.954;2023-12-28T10:42:33;98690.15;;;16.13
75811;BMP280;64449;50.016;19.954;2023-12-28T10:45:05;98686.04;;;16.39
75811;BMP280;64449;50.016;19.954;2023-12-28T10:47:37;98693.41;;;16.47
75811;BMP280;64449;50.016;19.954;2023-12-28T10:50:04;98698.92;;;16.53
75811;BMP280;64449;50.016;19.954;2023-12-28T10:52:31;98699.36;;;16.65
75811;BMP280;64449;50.016;19.954;2023-12-28T10:57:40;98703.06;;;17.03
75811;BMP280;64449;50.016;19.954;2023-12-28T11:00:11;98702.11;;;17.24
75811;BMP280;64449;50.016;19.954;2023-12-28T11:02:41;98702.83;;;17.37
75811;BMP280;64449;50.016;19.954;2023-12-28T11:05:09;98707.45;;;17.49
75811;BMP280;64449;50.016;19.954;2023-12-28T11:07:36;98707.65;;;17.54
75811;BMP280;64449;50.016;19.954;2023-12-28T11:10:05;98708.11;;;17.55
75811;BMP280;64449;50.016;19.954;2023-12-28T11:12:32;98702.16;;;17.50
75811;BMP280;64449;50.016;19.954;2023-12-28T11:14:59;98701.35;;;17.57
75811;BMP280;64449;50.016;19.954;2023-12-28T11:17:25;98699.77;;;17.63
75811;BMP280;64449;50.016;19.954;2023-12-28T11:19:53;98701.51;;;17.63
75811;BMP280;64449;50.016;19.954;2023-12-28T11:22:22;98687.68;;;17.61
75811;BMP280;64449;50.016;19.954;2023-12-28T11:24:48;98682.79;;;17.51
75811;BMP280;64449;50.016;19.954;2023-12-28T11:27:14;98677.48;;;17.52
75811;BMP280;64449;50.016;19.954;2023-12-28T11:29:41;98676.78;;;17.57
75811;BMP280;64449;50.016;19.954;2023-12-28T11:32:08;98668.48;;;17.66
75811;BMP280;64449;50.016;19.954;2023-12-28T11:34:33;98661.91;;;17.65
75811;BMP280;64449;50.016;19.954;2023-12-28T11:37:12;98660.52;;;17.67
75811;BMP280;64449;50.016;19.954;2023-12-28T11:39:38;98661.98;;;17.71
75811;BMP280;64449;50.016;19.954;2023-12-28T11:42:09;98660.87;;;17.63
75811;BMP280;64449;50.016;19.954;2023-12-28T11:44:39;98659.31;;;17.61
75811;BMP280;64449;50.016;19.954;2023-12-28T11:47:16;98655.06;;;17.64
75811;BMP280;64449;50.016;19.954;2023-12-28T11:49:42;98651.98;;;17.69
75811;BMP280;64449;50.016;19.954;2023-12-28T11:52:25;98659.90;;;17.62
75811;BMP280;64449;50.016;19.954;2023-12-28T11:54:50;98660.17;;;17.57
75811;BMP280;64449;50.016;19.954;2023-12-28T11:57:16;98661.09;;;17.61
75811;BMP280;64449;50.016;19.954;2023-12-28T11:59:42;98666.36;;;17.69
75811;BMP280;64449;50.016;19.954;2023-12-28T12:02:08;98668.19;;;17.70
75811;BMP280;64449;50.016;19.954;2023-12-28T12:04:34;98662.64;;;17.64
75811;BMP280;64449;50.016;19.954;2023-12-28T12:07:01;98654.95;;;17.49
75811;BMP280;64449;50.016;19.954;2023-12-28T12:09:28;98649.30;;;17.47
75811;BMP280;64449;50.016;19.954;2023-12-28T12:11:53;98647.78;;;17.54
75811;BMP280;64449;50.016;19.954;2023-12-28T12:14:19;98651.69;;;17.57
75811;BMP280;64449;50.016;19.954;2023-12-28T12:16:45;98651.21;;;17.60
75811;BMP280;64449;50.016;19.954;2023-12-28T12:19:11;98645.88;;;17.64
75811;BMP280;64449;50.016;19.954;2023-12-28T12:21:37;98639.50;;;17.59
75811;BMP280;64449;50.016;19.954;2023-12-28T12:24:03;98632.80;;;17.56
75811;BMP280;64449;50.016;19.954;2023-12-28T12:26:30;98623.23;;;17.47
75811;BMP280;64449;50.016;19.954;2023-12-28T12:28:56;98623.31;;;17.37
75811;BMP280;64449;50.016;19.954;2023-12-28T12:31:23;98621.36;;;17.33
75811;BMP280;64449;50.016;19.954;2023-12-28T12:33:48;98621.58;;;17.29
75811;BMP280;64449;50.016;19.954;2023-12-28T12:36:15;98620.64;;;17.21
75811;BMP280;64449;50.016;19.954;2023-12-28T12:38:41;98621.11;;;17.19
75811;BMP280;64449;50.016;19.954;2023-12-28T12:41:07;98620.34;;;17.19
75811;BMP280;64449;50.016;19.954;2023-12-28T12:43:33;98622.75;;;17.17
75811;BMP280;64449;50.016;19.954;2023-12-28T12:45:59;98621.02;;;17.12
75811;BMP280;64449;50.016;19.954;2023-12-28T12:48:25;98616.20;;;17.10
75811;BMP280;64449;50.016;19.954;2023-12-28T12:50:51;98607.67;;;17.01
75811;BMP280;64449;50.016;19.954;2023-12-28T12:53:16;98599.91;;;16.95
75811;BMP280;64449;50.016;19.954;2023-12-28T12:55:42;98595.84;;;16.82
75811;BMP280;64449;50.016;19.954;2023-12-28T12:58:12;98593.92;;;16.77
75811;BMP280;64449;50.016;19.954;2023-12-28T13:00:41;98595.52;;;16.76
75811;BMP280;64449;50.016;19.954;2023-12-28T13:03:09;98603.25;;;16.78
75811;BMP280;64449;50.016;19.954;2023-12-28T13:05:38;98610.02;;;16.76
75811;BMP280;64449;50.016;19.954;2023-12-28T13:08:04;98616.47;;;16.74
75811;BMP280;64449;50.016;19.954;2023-12-28T13:10:30;98615.15;;;16.73
75811;BMP280;64449;50.016;19.954;2023-12-28T13:12:56;98606.90;;;16.70
75811;BMP280;64449;50.016;19.954;2023-12-28T13:15:21;98602.77;;;16.66
75811;BMP280;64449;50.016;19.954;2023-12-28T13:17:47;98600.03;;;16.61
75811;BMP280;64449;50.016;19.954;2023-12-28T13:20:12;98603.45;;;16.59
75811;BMP280;64449;50.016;19.954;2023-12-28T13:22:37;98604.03;;;16.60
75811;BMP280;64449;50.016;19.954;2023-12-28T13:25:03;98595.37;;;16.59
75811;BMP280;64449;50.016;19.954;2023-12-28T13:27:29;98599.67;;;16.53
75811;BMP280;64449;50.016;19.954;2023-12-28T13:29:55;98602.13;;;16.48
75811;BMP280;64449;50.016;19.954;2023-12-28T13:32:21;98605.39;;;16.41
75811;BMP280;64449;50.016;19.954;2023-12-28T13:34:48;98603.44;;;16.38
75811;BMP280;64449;50.016;19.954;2023-12-28T13:37:13;98596.14;;;16.36
75811;BMP280;64449;50.016;19.954;2023-12-28T13:39:39;98605.25;;;16.30
75811;BMP280;64449;50.016;19.954;2023-12-28T13:42:07;98605.79;;;16.25
75811;BMP280;64449;50.016;19.954;2023-12-28T13:44:34;98603.54;;;16.17
75811;BMP280;64449;50.016;19.954;2023-12-28T13:47:01;98593.14;;;16.05
75811;BMP280;64449;50.016;19.954;2023-12-28T13:49:26;98593.64;;;15.92
75811;BMP280;64449;50.016;19.954;2023-12-28T13:51:52;98593.45;;;15.77
75811;BMP280;64449;50.016;19.954;2023-12-28T13:54:17;98594.46;;;15.66
75811;BMP280;64449;50.016;19.954;2023-12-28T13:56:45;98588.09;;;15.55
75811;BMP280;64449;50.016;19.954;2023-12-28T13:59:11;98590.59;;;15.46
75811;BMP280;64449;50.016;19.954;2023-12-28T14:01:37;98589.15;;;15.38
75811;BMP280;64449;50.016;19.954;2023-12-28T14:04:03;98593.16;;;15.30